sensor_id;sensor_type;location;lat;lon;timestamp;P1;durP1;ratioP1;P2;durP2;ratioP2
65581;SDS011;52231;40.090;18.348;2024-03-17T00:02:22;26.33;;;15.10;;
65581;SDS011;52231;40.090;18.348;2024-03-17T00:04:50;28.45;;;15.45;;
65581;SDS011;52231;40.090;18.348;2024-03-17T00:07:17;25.77;;;15.45;;
65581;SDS011;52231;40.090;18.348;2024-03-17T00:09:45;24.67;;;15.52;;
65581;SDS011;52231;40.090;18.348;2024-03-17T00:12:13;24.10;;;13.68;;
65581;SDS011;52231;40.090;18.348;2024-03-17T00:14:40;23.92;;;14.45;;
65581;SDS011;52231;40.090;18.348;2024-03-17T00:17:27;27.05;;;15.32;;
65581;SDS011;52231;40.090;18.348;2024-03-17T00:19:55;24.10;;;14.35;;
65581;SDS011;52231;40.090;18.348;2024-03-17T00:22:23;25.88;;;14.60;;
65581;SDS011;52231;40.090;18.348;2024-03-17T00:24:51;22.00;;;15.30;;
65581;SDS011;52231;40.090;18.348;2024-03-17T00:27:18;25.58;;;14.77;;
65581;SDS011;52231;40.090;18.348;2024-03-17T00:29:45;26.83;;;14.77;;
65581;SDS011;52231;40.090;18.348;2024-03-17T00:32:31;25.85;;;15.52;;
65581;SDS011;52231;40.090;18.348;2024-03-17T00:34:58;26.63;;;14.48;;
65581;SDS011;52231;40.090;18.348;2024-03-17T00:37:25;24.83;;;13.98;;
65581;SDS011;52231;40.090;18.348;2024-03-17T00:40:12;22.42;;;13.75;;
65581;SDS011;52231;40.090;18.348;2024-03-17T00:42:39;26.95;;;15.10;;
65581;SDS011;52231;40.090;18.348;2024-03-17T00:45:07;22.95;;;13.50;;
65581;SDS011;52231;40.090;18.348;2024-03-17T00:47:36;26.38;;;15.38;;
65581;SDS011;52231;40.090;18.348;2024-03-17T00:50:04;26.73;;;15.40;;
65581;SDS011;52231;40.090;18.348;2024-03-17T00:52:35;25.50;;;14.82;;
65581;SDS011;52231;40.090;18.348;2024-03-17T00:55:02;25.90;;;15.95;;
65581;SDS011;52231;40.090;18.348;2024-03-17T00:57:29;22.98;;;13.65;;
65581;SDS011;52231;40.090;18.348;2024-03-17T00:59:57;23.40;;;14.77;;
65581;SDS011;52231;40.090;18.348;2024-03-17T01:02:24;26.67;;;15.07;;
65581;SDS011;52231;40.090;18.348;2024-03-17T01:04:51;27.00;;;15.95;;
65581;SDS011;52231;40.090;18.348;2024-03-17T01:07:18;24.73;;;15.35;;
65581;SDS011;52231;40.090;18.348;2024-03-17T01:09:49;26.20;;;15.63;;
65581;SDS011;52231;40.090;18.348;2024-03-17T01:12:16;28.42;;;16.05;;
65581;SDS011;52231;40.090;18.348;2024-03-17T01:14:43;24.35;;;14.05;;
65581;SDS011;52231;40.090;18.348;2024-03-17T01:17:11;25.05;;;14.32;;
65581;SDS011;52231;40.090;18.348;2024-03-17T01:19:38;27.95;;;16.02;;
65581;SDS011;52231;40.090;18.348;2024-03-17T01:22:05;26.05;;;16.77;;
65581;SDS011;52231;40.090;18.348;2024-03-17T01:24:32;26.40;;;16.85;;
65581;SDS011;52231;40.090;18.348;2024-03-17T01:27:00;26.83;;;15.93;;
65581;SDS011;52231;40.090;18.348;2024-03-17T01:29:28;26.77;;;16.48;;
65581;SDS011;52231;40.090;18.348;2024-03-17T01:31:55;26.63;;;15.35;;
65581;SDS011;52231;40.090;18.348;2024-03-17T01:34:22;25.50;;;15.73;;
65581;SDS011;52231;40.090;18.348;2024-03-17T01:36:49;27.00;;;15.77;;
65581;SDS011;52231;40.090;18.348;2024-03-17T01:39:17;29.05;;;17.10;;
65581;SDS011;52231;40.090;18.348;2024-03-17T01:41:45;28.27;;;16.75;;
65581;SDS011;52231;40.090;18.348;2024-03-17T01:44:22;26.13;;;16.33;;
65581;SDS011;52231;40.090;18.348;2024-03-17T01:46:50;32.45;;;16.85;;
65581;SDS011;52231;40.090;18.348;2024-03-17T01:49:17;30.08;;;17.58;;
65581;SDS011;52231;40.090;18.348;2024-03-17T01:51:46;30.65;;;17.02;;
65581;SDS011;52231;40.090;18.348;2024-03-17T01:54:14;30.35;;;17.60;;
65581;SDS011;52231;40.090;18.348;2024-03-17T01:56:43;29.52;;;16.25;;
65581;SDS011;52231;40.090;18.348;2024-03-17T01:59:11;31.15;;;17.10;;
65581;SDS011;52231;40.090;18.348;2024-03-17T02:01:38;28.20;;;17.27;;
65581;SDS011;52231;40.090;18.348;2024-03-17T02:04:07;29.40;;;17.70;;
65581;SDS011;52231;40.090;18.348;2024-03-17T02:06:35;28.95;;;17.35;;
65581;SDS011;52231;40.090;18.348;2024-03-17T02:09:02;27.60;;;17.55;;
65581;SDS011;52231;40.090;18.348;2024-03-17T02:11:48;28.23;;;16.95;;
65581;SDS011;52231;40.090;18.348;2024-03-17T02:14:15;27.08;;;16.27;;
65581;SDS011;52231;40.090;18.348;2024-03-17T02:16:44;31.27;;;16.05;;
65581;SDS011;52231;40.090;18.348;2024-03-17T02:19:11;27.38;;;15.13;;
65581;SDS011;52231;40.090;18.348;2024-03-17T02:21:38;29.00;;;17.27;;
65581;SDS011;52231;40.090;18.348;2024-03-17T02:24:07;26.50;;;15.43;;
65581;SDS011;52231;40.090;18.348;2024-03-17T02:26:35;30.77;;;16.10;;
65581;SDS011;52231;40.090;18.348;2024-03-17T02:29:02;29.05;;;16.83;;
65581;SDS011;52231;40.090;18.348;2024-03-17T02:31:29;27.88;;;16.70;;
65581;SDS011;52231;40.090;18.348;2024-03-17T02:34:15;25.92;;;16.20;;
65581;SDS011;52231;40.090;18.348;2024-03-17T02:36:42;29.40;;;16.08;;
65581;SDS011;52231;40.090;18.348;2024-03-17T02:39:09;35.90;;;17.42;;
65581;SDS011;52231;40.090;18.348;2024-03-17T02:41:55;28.38;;;16.20;;
65581;SDS011;52231;40.090;18.348;2024-03-17T02:44:22;25.70;;;15.80;;
65581;SDS011;52231;40.090;18.348;2024-03-17T02:46:49;27.05;;;14.80;;
65581;SDS011;52231;40.090;18.348;2024-03-17T02:49:16;24.88;;;14.63;;
65581;SDS011;52231;40.090;18.348;2024-03-17T02:51:44;27.17;;;15.63;;
65581;SDS011;52231;40.090;18.348;2024-03-17T02:54:11;27.35;;;16.33;;
65581;SDS011;52231;40.090;18.348;2024-03-17T02:56:39;25.77;;;15.65;;
65581;SDS011;52231;40.090;18.348;2024-03-17T02:59:06;23.98;;;14.15;;
65581;SDS011;52231;40.090;18.348;2024-03-17T03:01:33;26.58;;;14.35;;
65581;SDS011;52231;40.090;18.348;2024-03-17T03:04:01;29.35;;;15.25;;
65581;SDS011;52231;40.090;18.348;2024-03-17T03:06:28;24.77;;;14.55;;
65581;SDS011;52231;40.090;18.348;2024-03-17T03:08:55;26.05;;;15.38;;
65581;SDS011;52231;40.090;18.348;2024-03-17T03:11:22;27.35;;;15.73;;
65581;SDS011;52231;40.090;18.348;2024-03-17T03:13:49;25.83;;;14.23;;
65581;SDS011;52231;40.090;18.348;2024-03-17T03:16:17;24.92;;;13.52;;
65581;SDS011;52231;40.090;18.348;2024-03-17T03:18:45;24.73;;;15.02;;
65581;SDS011;52231;40.090;18.348;2024-03-17T03:21:12;24.70;;;15.27;;
65581;SDS011;52231;40.090;18.348;2024-03-17T03:23:39;27.60;;;15.55;;
65581;SDS011;52231;40.090;18.348;2024-03-17T03:26:07;26.40;;;15.05;;
65581;SDS011;52231;40.090;18.348;2024-03-17T03:28:35;27.52;;;15.55;;
65581;SDS011;52231;40.090;18.348;2024-03-17T03:31:03;27.55;;;15.68;;
65581;SDS011;52231;40.090;18.348;2024-03-17T03:33:30;25.58;;;14.45;;
65581;SDS011;52231;40.090;18.348;2024-03-17T03:35:58;28.08;;;14.38;;
65581;SDS011;52231;40.090;18.348;2024-03-17T03:38:26;27.60;;;15.38;;
65581;SDS011;52231;40.090;18.348;2024-03-17T03:40:53;25.90;;;15.15;;
65581;SDS011;52231;40.090;18.348;2024-03-17T03:43:20;28.15;;;14.45;;
65581;SDS011;52231;40.090;18.348;2024-03-17T03:45:47;26.02;;;14.52;;
65581;SDS011;52231;40.090;18.348;2024-03-17T03:48:14;24.67;;;14.98;;
65581;SDS011;52231;40.090;18.348;2024-03-17T03:50:41;26.27;;;15.68;;
65581;SDS011;52231;40.090;18.348;2024-03-17T03:53:10;25.92;;;13.90;;
65581;SDS011;52231;40.090;18.348;2024-03-17T03:55:37;27.05;;;15.50;;
65581;SDS011;52231;40.090;18.348;2024-03-17T03:58:04;28.58;;;16.73;;
65581;SDS011;52231;40.090;18.348;2024-03-17T04:00:32;25.92;;;15.68;;
65581;SDS011;52231;40.090;18.348;2024-03-17T04:02:59;25.90;;;14.10;;
65581;SDS011;52231;40.090;18.348;2024-03-17T04:05:28;27.75;;;16.38;;
65581;SDS011;52231;40.090;18.348;2024-03-17T04:07:55;26.92;;;16.25;;
65581;SDS011;52231;40.090;18.348;2024-03-17T04:10:22;28.90;;;17.02;;
65581;SDS011;52231;40.090;18.348;2024-03-17T04:12:50;28.30;;;16.17;;
65581;SDS011;52231;40.090;18.348;2024-03-17T04:15:18;25.75;;;14.60;;
65581;SDS011;52231;40.090;18.348;2024-03-17T04:17:46;28.25;;;16.70;;
65581;SDS011;52231;40.090;18.348;2024-03-17T04:20:13;30.17;;;17.90;;
65581;SDS011;52231;40.090;18.348;2024-03-17T04:22:41;29.98;;;17.80;;
65581;SDS011;52231;40.090;18.348;2024-03-17T04:25:11;27.13;;;16.27;;
65581;SDS011;52231;40.090;18.348;2024-03-17T04:27:39;32.97;;;16.23;;
65581;SDS011;52231;40.090;18.348;2024-03-17T04:30:07;31.55;;;17.73;;
65581;SDS011;52231;40.090;18.348;2024-03-17T04:32:36;31.95;;;18.50;;
65581;SDS011;52231;40.090;18.348;2024-03-17T04:35:03;34.95;;;19.70;;
65581;SDS011;52231;40.090;18.348;2024-03-17T04:37:30;32.22;;;16.73;;
65581;SDS011;52231;40.090;18.348;2024-03-17T04:40:06;32.50;;;18.35;;
65581;SDS011;52231;40.090;18.348;2024-03-17T04:42:35;30.90;;;16.83;;
65581;SDS011;52231;40.090;18.348;2024-03-17T04:45:06;33.05;;;17.15;;
65581;SDS011;52231;40.090;18.348;2024-03-17T04:47:35;32.95;;;18.60;;
65581;SDS011;52231;40.090;18.348;2024-03-17T04:50:03;35.47;;;18.70;;
65581;SDS011;52231;40.090;18.348;2024-03-17T04:52:30;34.13;;;18.10;;
65581;SDS011;52231;40.090;18.348;2024-03-17T04:54:58;39.65;;;18.55;;
65581;SDS011;52231;40.090;18.348;2024-03-17T04:57:25;37.47;;;19.58;;
65581;SDS011;52231;40.090;18.348;2024-03-17T04:59:52;36.63;;;19.88;;
65581;SDS011;52231;40.090;18.348;2024-03-17T05:02:20;41.33;;;20.13;;
65581;SDS011;52231;40.090;18.348;2024-03-17T05:04:50;37.90;;;20.48;;
65581;SDS011;52231;40.090;18.348;2024-03-17T05:07:17;36.05;;;21.50;;
65581;SDS011;52231;40.090;18.348;2024-03-17T05:09:44;39.70;;;21.80;;
65581;SDS011;52231;40.090;18.348;2024-03-17T05:12:11;40.83;;;21.83;;
65581;SDS011;52231;40.090;18.348;2024-03-17T05:14:38;37.92;;;21.00;;
65581;SDS011;52231;40.090;18.348;2024-03-17T05:17:05;42.45;;;21.05;;
65581;SDS011;52231;40.090;18.348;2024-03-17T05:19:33;40.95;;;22.27;;
65581;SDS011;52231;40.090;18.348;2024-03-17T05:22:00;36.50;;;22.38;;
65581;SDS011;52231;40.090;18.348;2024-03-17T05:24:27;41.33;;;23.30;;
65581;SDS011;52231;40.090;18.348;2024-03-17T05:26:54;43.55;;;23.13;;
65581;SDS011;52231;40.090;18.348;2024-03-17T05:29:40;42.83;;;22.73;;
65581;SDS011;52231;40.090;18.348;2024-03-17T05:32:08;38.72;;;21.05;;
65581;SDS011;52231;40.090;18.348;2024-03-17T05:37:04;42.55;;;21.55;;
65581;SDS011;52231;40.090;18.348;2024-03-17T05:39:31;43.05;;;21.70;;
65581;SDS011;52231;40.090;18.348;2024-03-17T05:41:58;48.42;;;25.00;;
65581;SDS011;52231;40.090;18.348;2024-03-17T05:44:26;42.35;;;24.35;;
65581;SDS011;52231;40.090;18.348;2024-03-17T05:46:55;40.90;;;22.98;;
65581;SDS011;52231;40.090;18.348;2024-03-17T05:51:51;39.60;;;20.40;;
65581;SDS011;52231;40.090;18.348;2024-03-17T05:54:18;44.33;;;22.27;;
65581;SDS011;52231;40.090;18.348;2024-03-17T05:56:45;40.92;;;21.00;;
65581;SDS011;52231;40.090;18.348;2024-03-17T05:59:13;41.17;;;21.90;;
65581;SDS011;52231;40.090;18.348;2024-03-17T06:01:40;39.45;;;22.95;;
65581;SDS011;52231;40.090;18.348;2024-03-17T06:04:07;43.08;;;23.50;;
65581;SDS011;52231;40.090;18.348;2024-03-17T06:06:35;40.85;;;23.95;;
65581;SDS011;52231;40.090;18.348;2024-03-17T06:09:02;40.70;;;23.58;;
65581;SDS011;52231;40.090;18.348;2024-03-17T06:11:30;38.75;;;22.50;;
65581;SDS011;52231;40.090;18.348;2024-03-17T06:14:01;36.95;;;22.35;;
65581;SDS011;52231;40.090;18.348;2024-03-17T06:16:30;34.28;;;20.70;;
65581;SDS011;52231;40.090;18.348;2024-03-17T06:18:57;32.60;;;20.00;;
65581;SDS011;52231;40.090;18.348;2024-03-17T06:21:24;30.77;;;17.50;;
65581;SDS011;52231;40.090;18.348;2024-03-17T06:23:52;28.92;;;17.67;;
65581;SDS011;52231;40.090;18.348;2024-03-17T06:26:19;30.85;;;16.73;;
65581;SDS011;52231;40.090;18.348;2024-03-17T06:28:47;27.00;;;16.85;;
65581;SDS011;52231;40.090;18.348;2024-03-17T06:31:14;23.77;;;14.80;;
65581;SDS011;52231;40.090;18.348;2024-03-17T06:33:42;24.90;;;14.73;;
65581;SDS011;52231;40.090;18.348;2024-03-17T06:36:10;22.73;;;13.85;;
65581;SDS011;52231;40.090;18.348;2024-03-17T06:38:37;22.35;;;13.68;;
65581;SDS011;52231;40.090;18.348;2024-03-17T06:41:06;24.55;;;11.48;;
65581;SDS011;52231;40.090;18.348;2024-03-17T06:43:33;16.30;;;10.48;;
65581;SDS011;52231;40.090;18.348;2024-03-17T06:46:00;14.43;;;8.40;;
65581;SDS011;52231;40.090;18.348;2024-03-17T06:48:28;13.70;;;6.63;;
65581;SDS011;52231;40.090;18.348;2024-03-17T06:50:55;11.52;;;6.10;;
65581;SDS011;52231;40.090;18.348;2024-03-17T06:53:23;12.95;;;6.57;;
65581;SDS011;52231;40.090;18.348;2024-03-17T06:56:11;12.55;;;5.95;;
65581;SDS011;52231;40.090;18.348;2024-03-17T06:58:38;10.63;;;4.78;;
65581;SDS011;52231;40.090;18.348;2024-03-17T07:01:05;11.50;;;4.40;;
65581;SDS011;52231;40.090;18.348;2024-03-17T07:03:32;9.70;;;4.75;;
65581;SDS011;52231;40.090;18.348;2024-03-17T07:05:59;8.20;;;3.90;;
65581;SDS011;52231;40.090;18.348;2024-03-17T07:08:29;7.82;;;2.72;;
65581;SDS011;52231;40.090;18.348;2024-03-17T07:11:06;4.93;;;2.50;;
65581;SDS011;52231;40.090;18.348;2024-03-17T07:13:37;7.03;;;2.67;;
65581;SDS011;52231;40.090;18.348;2024-03-17T07:16:08;5.47;;;2.50;;
65581;SDS011;52231;40.090;18.348;2024-03-17T07:18:36;5.95;;;2.65;;
65581;SDS011;52231;40.090;18.348;2024-03-17T07:21:03;7.68;;;2.47;;
65581;SDS011;52231;40.090;18.348;2024-03-17T07:23:31;6.97;;;2.63;;
65581;SDS011;52231;40.090;18.348;2024-03-17T07:25:59;5.95;;;2.70;;
65581;SDS011;52231;40.090;18.348;2024-03-17T07:28:27;6.22;;;2.75;;
65581;SDS011;52231;40.090;18.348;2024-03-17T07:30:55;5.00;;;2.50;;
65581;SDS011;52231;40.090;18.348;2024-03-17T07:33:24;6.22;;;2.60;;
65581;SDS011;52231;40.090;18.348;2024-03-17T07:35:55;5.53;;;2.40;;
65581;SDS011;52231;40.090;18.348;2024-03-17T07:38:28;8.05;;;2.83;;
65581;SDS011;52231;40.090;18.348;2024-03-17T07:40:57;6.38;;;2.63;;
65581;SDS011;52231;40.090;18.348;2024-03-17T07:43:27;6.60;;;2.95;;
65581;SDS011;52231;40.090;18.348;2024-03-17T07:46:01;8.32;;;3.13;;
65581;SDS011;52231;40.090;18.348;2024-03-17T07:48:42;7.40;;;2.60;;
65581;SDS011;52231;40.090;18.348;2024-03-17T07:51:13;8.02;;;3.30;;
65581;SDS011;52231;40.090;18.348;2024-03-17T07:53:43;8.38;;;3.35;;
65581;SDS011;52231;40.090;18.348;2024-03-17T07:56:12;8.75;;;3.10;;
65581;SDS011;52231;40.090;18.348;2024-03-17T07:58:41;8.55;;;2.97;;
65581;SDS011;52231;40.090;18.348;2024-03-17T08:01:10;16.70;;;4.68;;
65581;SDS011;52231;40.090;18.348;2024-03-17T08:03:41;12.20;;;5.28;;
65581;SDS011;52231;40.090;18.348;2024-03-17T08:06:10;12.98;;;4.78;;
65581;SDS011;52231;40.090;18.348;2024-03-17T08:08:38;11.27;;;5.10;;
65581;SDS011;52231;40.090;18.348;2024-03-17T08:11:05;14.65;;;5.88;;
65581;SDS011;52231;40.090;18.348;2024-03-17T08:13:33;12.52;;;4.50;;
65581;SDS011;52231;40.090;18.348;2024-03-17T08:16:04;11.00;;;3.80;;
65581;SDS011;52231;40.090;18.348;2024-03-17T08:18:33;10.05;;;3.60;;
65581;SDS011;52231;40.090;18.348;2024-03-17T08:21:03;9.15;;;3.30;;
65581;SDS011;52231;40.090;18.348;2024-03-17T08:23:32;12.77;;;4.15;;
65581;SDS011;52231;40.090;18.348;2024-03-17T08:26:02;8.30;;;3.33;;
65581;SDS011;52231;40.090;18.348;2024-03-17T08:28:29;10.13;;;3.63;;
65581;SDS011;52231;40.090;18.348;2024-03-17T08:30:57;9.70;;;3.60;;
65581;SDS011;52231;40.090;18.348;2024-03-17T08:33:25;11.73;;;4.15;;
65581;SDS011;52231;40.090;18.348;2024-03-17T08:35:57;13.98;;;5.07;;
65581;SDS011;52231;40.090;18.348;2024-03-17T08:38:26;11.05;;;4.00;;
65581;SDS011;52231;40.090;18.348;2024-03-17T08:43:21;10.55;;;3.33;;
65581;SDS011;52231;40.090;18.348;2024-03-17T08:45:56;11.52;;;3.45;;
65581;SDS011;52231;40.090;18.348;2024-03-17T08:48:29;10.07;;;2.80;;
65581;SDS011;52231;40.090;18.348;2024-03-17T08:50:57;6.82;;;2.20;;
65581;SDS011;52231;40.090;18.348;2024-03-17T08:53:25;7.82;;;2.42;;
65581;SDS011;52231;40.090;18.348;2024-03-17T08:55:53;6.30;;;2.47;;
65581;SDS011;52231;40.090;18.348;2024-03-17T08:58:21;11.63;;;3.70;;
65581;SDS011;52231;40.090;18.348;2024-03-17T09:00:48;11.23;;;2.40;;
65581;SDS011;52231;40.090;18.348;2024-03-17T09:03:15;10.55;;;2.70;;
65581;SDS011;52231;40.090;18.348;2024-03-17T09:05:43;7.72;;;2.40;;
65581;SDS011;52231;40.090;18.348;2024-03-17T09:10:44;3.95;;;1.83;;
65581;SDS011;52231;40.090;18.348;2024-03-17T09:13:16;7.82;;;2.50;;
65581;SDS011;52231;40.090;18.348;2024-03-17T09:15:51;10.07;;;2.20;;
65581;SDS011;52231;40.090;18.348;2024-03-17T09:18:47;11.27;;;2.30;;
65581;SDS011;52231;40.090;18.348;2024-03-17T09:21:15;8.60;;;2.42;;
65581;SDS011;52231;40.090;18.348;2024-03-17T09:23:44;6.82;;;2.05;;
65581;SDS011;52231;40.090;18.348;2024-03-17T09:26:12;5.80;;;1.77;;
65581;SDS011;52231;40.090;18.348;2024-03-17T09:28:42;4.75;;;1.52;;
65581;SDS011;52231;40.090;18.348;2024-03-17T09:31:10;3.92;;;1.58;;
65581;SDS011;52231;40.090;18.348;2024-03-17T09:33:38;7.75;;;1.60;;
65581;SDS011;52231;40.090;18.348;2024-03-17T09:36:06;5.38;;;1.63;;
65581;SDS011;52231;40.090;18.348;2024-03-17T09:38:35;5.00;;;1.75;;
65581;SDS011;52231;40.090;18.348;2024-03-17T09:41:03;7.28;;;1.83;;
65581;SDS011;52231;40.090;18.348;2024-03-17T09:43:32;5.57;;;1.50;;
65581;SDS011;52231;40.090;18.348;2024-03-17T09:46:04;4.22;;;1.73;;
65581;SDS011;52231;40.090;18.348;2024-03-17T09:48:32;3.60;;;1.42;;
65581;SDS011;52231;40.090;18.348;2024-03-17T09:51:00;3.20;;;1.77;;
65581;SDS011;52231;40.090;18.348;2024-03-17T09:53:32;5.20;;;1.30;;
65581;SDS011;52231;40.090;18.348;2024-03-17T09:56:14;3.10;;;1.50;;
65581;SDS011;52231;40.090;18.348;2024-03-17T09:59:02;5.55;;;1.60;;
65581;SDS011;52231;40.090;18.348;2024-03-17T10:01:30;6.97;;;1.60;;
65581;SDS011;52231;40.090;18.348;2024-03-17T10:03:58;4.07;;;1.60;;
65581;SDS011;52231;40.090;18.348;2024-03-17T10:06:30;7.47;;;1.73;;
65581;SDS011;52231;40.090;18.348;2024-03-17T10:09:00;7.55;;;2.20;;
65581;SDS011;52231;40.090;18.348;2024-03-17T10:11:36;5.32;;;1.60;;
65581;SDS011;52231;40.090;18.348;2024-03-17T10:14:07;6.30;;;1.92;;
65581;SDS011;52231;40.090;18.348;2024-03-17T10:16:35;8.20;;;2.75;;
65581;SDS011;52231;40.090;18.348;2024-03-17T10:19:11;8.40;;;2.42;;
65581;SDS011;52231;40.090;18.348;2024-03-17T10:21:46;6.72;;;1.95;;
65581;SDS011;52231;40.090;18.348;2024-03-17T10:24:20;5.93;;;1.80;;
65581;SDS011;52231;40.090;18.348;2024-03-17T10:29:29;6.75;;;1.67;;
65581;SDS011;52231;40.090;18.348;2024-03-17T10:31:58;5.47;;;2.00;;
65581;SDS011;52231;40.090;18.348;2024-03-17T10:34:30;5.22;;;1.63;;
65581;SDS011;52231;40.090;18.348;2024-03-17T10:37:10;4.70;;;1.52;;
65581;SDS011;52231;40.090;18.348;2024-03-17T10:39:43;6.10;;;1.60;;
65581;SDS011;52231;40.090;18.348;2024-03-17T10:42:11;4.20;;;1.63;;
65581;SDS011;52231;40.090;18.348;2024-03-17T10:44:41;4.97;;;1.77;;
65581;SDS011;52231;40.090;18.348;2024-03-17T10:47:22;4.85;;;1.75;;
65581;SDS011;52231;40.090;18.348;2024-03-17T10:49:53;7.80;;;2.00;;
65581;SDS011;52231;40.090;18.348;2024-03-17T10:52:22;7.65;;;2.83;;
65581;SDS011;52231;40.090;18.348;2024-03-17T10:54:54;7.75;;;2.22;;
65581;SDS011;52231;40.090;18.348;2024-03-17T10:57:32;4.55;;;1.80;;
65581;SDS011;52231;40.090;18.348;2024-03-17T11:00:02;7.03;;;2.00;;
65581;SDS011;52231;40.090;18.348;2024-03-17T11:02:32;7.40;;;2.60;;
65581;SDS011;52231;40.090;18.348;2024-03-17T11:05:00;5.88;;;1.90;;
65581;SDS011;52231;40.090;18.348;2024-03-17T11:07:31;6.50;;;2.20;;
65581;SDS011;52231;40.090;18.348;2024-03-17T11:09:59;6.03;;;1.92;;
65581;SDS011;52231;40.090;18.348;2024-03-17T11:12:42;4.75;;;1.80;;
65581;SDS011;52231;40.090;18.348;2024-03-17T11:15:53;8.82;;;2.20;;
65581;SDS011;52231;40.090;18.348;2024-03-17T11:20:36;5.13;;;2.05;;
65581;SDS011;52231;40.090;18.348;2024-03-17T11:23:05;5.50;;;1.90;;
65581;SDS011;52231;40.090;18.348;2024-03-17T11:25:36;8.32;;;1.67;;
65581;SDS011;52231;40.090;18.348;2024-03-17T11:28:07;7.75;;;1.70;;
65581;SDS011;52231;40.090;18.348;2024-03-17T11:49:30;4.85;;;1.80;;
65581;SDS011;52231;40.090;18.348;2024-03-17T11:52:08;4.57;;;1.60;;
65581;SDS011;52231;40.090;18.348;2024-03-17T11:54:41;4.00;;;1.70;;
65581;SDS011;52231;40.090;18.348;2024-03-17T11:57:10;7.07;;;2.00;;
65581;SDS011;52231;40.090;18.348;2024-03-17T11:59:41;5.05;;;1.90;;
65581;SDS011;52231;40.090;18.348;2024-03-17T12:04:45;3.50;;;1.60;;
65581;SDS011;52231;40.090;18.348;2024-03-17T12:07:13;4.32;;;1.85;;
65581;SDS011;52231;40.090;18.348;2024-03-17T12:09:41;15.90;;;6.22;;
65581;SDS011;52231;40.090;18.348;2024-03-17T12:12:10;6.65;;;2.45;;
65581;SDS011;52231;40.090;18.348;2024-03-17T12:14:44;12.13;;;4.70;;
65581;SDS011;52231;40.090;18.348;2024-03-17T12:17:12;7.97;;;2.40;;
65581;SDS011;52231;40.090;18.348;2024-03-17T12:19:44;6.35;;;2.20;;
65581;SDS011;52231;40.090;18.348;2024-03-17T12:22:21;7.47;;;2.20;;
65581;SDS011;52231;40.090;18.348;2024-03-17T12:24:53;5.43;;;2.03;;
65581;SDS011;52231;40.090;18.348;2024-03-17T12:27:22;7.20;;;2.40;;
65581;SDS011;52231;40.090;18.348;2024-03-17T12:29:51;4.43;;;2.00;;
65581;SDS011;52231;40.090;18.348;2024-03-17T12:32:20;5.65;;;1.80;;
65581;SDS011;52231;40.090;18.348;2024-03-17T12:34:52;8.43;;;2.50;;
65581;SDS011;52231;40.090;18.348;2024-03-17T12:37:23;6.43;;;2.10;;
65581;SDS011;52231;40.090;18.348;2024-03-17T12:39:57;7.38;;;2.35;;
65581;SDS011;52231;40.090;18.348;2024-03-17T12:42:28;5.25;;;2.15;;
65581;SDS011;52231;40.090;18.348;2024-03-17T12:44:56;6.05;;;2.33;;
65581;SDS011;52231;40.090;18.348;2024-03-17T12:47:25;5.70;;;2.15;;
65581;SDS011;52231;40.090;18.348;2024-03-17T12:49:56;6.60;;;2.35;;
65581;SDS011;52231;40.090;18.348;2024-03-17T12:57:47;7.75;;;2.40;;
65581;SDS011;52231;40.090;18.348;2024-03-17T13:00:34;5.95;;;2.67;;
65581;SDS011;52231;40.090;18.348;2024-03-17T13:03:05;9.07;;;2.53;;
65581;SDS011;52231;40.090;18.348;2024-03-17T13:05:34;6.88;;;2.20;;
65581;SDS011;52231;40.090;18.348;2024-03-17T13:08:02;6.93;;;2.40;;
65581;SDS011;52231;40.090;18.348;2024-03-17T13:10:29;6.38;;;2.35;;
65581;SDS011;52231;40.090;18.348;2024-03-17T13:13:01;9.00;;;2.80;;
65581;SDS011;52231;40.090;18.348;2024-03-17T13:15:34;6.97;;;2.80;;
65581;SDS011;52231;40.090;18.348;2024-03-17T13:18:04;7.93;;;2.80;;
65581;SDS011;52231;40.090;18.348;2024-03-17T13:20:32;24.13;;;9.35;;
65581;SDS011;52231;40.090;18.348;2024-03-17T13:22:59;11.23;;;4.78;;
65581;SDS011;52231;40.090;18.348;2024-03-17T13:25:30;7.85;;;3.05;;
65581;SDS011;52231;40.090;18.348;2024-03-17T13:28:03;10.05;;;3.10;;
65581;SDS011;52231;40.090;18.348;2024-03-17T13:30:33;7.57;;;2.90;;
65581;SDS011;52231;40.090;18.348;2024-03-17T13:33:03;5.85;;;2.15;;
65581;SDS011;52231;40.090;18.348;2024-03-17T13:35:38;6.97;;;2.58;;
65581;SDS011;52231;40.090;18.348;2024-03-17T13:38:07;5.93;;;2.45;;
65581;SDS011;52231;40.090;18.348;2024-03-17T13:40:35;8.95;;;2.90;;
65581;SDS011;52231;40.090;18.348;2024-03-17T13:43:07;7.00;;;2.53;;
65581;SDS011;52231;40.090;18.348;2024-03-17T13:45:38;7.05;;;2.70;;
65581;SDS011;52231;40.090;18.348;2024-03-17T13:48:07;10.02;;;3.65;;
65581;SDS011;52231;40.090;18.348;2024-03-17T13:50:38;11.18;;;5.05;;
65581;SDS011;52231;40.090;18.348;2024-03-17T13:53:08;14.07;;;3.50;;
65581;SDS011;52231;40.090;18.348;2024-03-17T13:55:35;8.70;;;2.60;;
65581;SDS011;52231;40.090;18.348;2024-03-17T13:58:03;9.90;;;3.63;;
65581;SDS011;52231;40.090;18.348;2024-03-17T14:00:31;8.68;;;3.10;;
65581;SDS011;52231;40.090;18.348;2024-03-17T14:03:02;5.45;;;2.33;;
65581;SDS011;52231;40.090;18.348;2024-03-17T14:05:29;6.50;;;2.67;;
65581;SDS011;52231;40.090;18.348;2024-03-17T14:07:59;8.63;;;2.33;;
65581;SDS011;52231;40.090;18.348;2024-03-17T14:10:26;10.07;;;2.80;;
65581;SDS011;52231;40.090;18.348;2024-03-17T14:12:54;8.85;;;3.30;;
65581;SDS011;52231;40.090;18.348;2024-03-17T14:15:21;9.63;;;2.95;;
65581;SDS011;52231;40.090;18.348;2024-03-17T14:17:48;6.60;;;2.45;;
65581;SDS011;52231;40.090;18.348;2024-03-17T14:20:16;7.32;;;3.33;;
65581;SDS011;52231;40.090;18.348;2024-03-17T14:22:46;10.25;;;3.78;;
65581;SDS011;52231;40.090;18.348;2024-03-17T14:25:14;7.97;;;3.45;;
65581;SDS011;52231;40.090;18.348;2024-03-17T14:27:47;10.82;;;3.50;;
65581;SDS011;52231;40.090;18.348;2024-03-17T14:30:16;9.00;;;3.40;;
65581;SDS011;52231;40.090;18.348;2024-03-17T14:32:48;12.07;;;3.78;;
65581;SDS011;52231;40.090;18.348;2024-03-17T14:35:16;8.60;;;2.75;;
65581;SDS011;52231;40.090;18.348;2024-03-17T14:40:15;9.90;;;3.63;;
65581;SDS011;52231;40.090;18.348;2024-03-17T14:42:50;10.15;;;3.33;;
65581;SDS011;52231;40.090;18.348;2024-03-17T14:45:18;11.50;;;3.13;;
65581;SDS011;52231;40.090;18.348;2024-03-17T14:47:46;8.32;;;3.78;;
65581;SDS011;52231;40.090;18.348;2024-03-17T14:50:13;10.38;;;3.28;;
65581;SDS011;52231;40.090;18.348;2024-03-17T14:52:42;10.23;;;3.35;;
65581;SDS011;52231;40.090;18.348;2024-03-17T14:55:10;8.88;;;4.20;;
65581;SDS011;52231;40.090;18.348;2024-03-17T14:57:37;10.38;;;3.80;;
65581;SDS011;52231;40.090;18.348;2024-03-17T15:00:06;8.40;;;3.95;;
65581;SDS011;52231;40.090;18.348;2024-03-17T15:02:45;12.23;;;4.57;;
65581;SDS011;52231;40.090;18.348;2024-03-17T15:05:13;10.75;;;4.65;;
65581;SDS011;52231;40.090;18.348;2024-03-17T15:07:41;10.77;;;5.05;;
65581;SDS011;52231;40.090;18.348;2024-03-17T15:10:09;13.00;;;6.95;;
65581;SDS011;52231;40.090;18.348;2024-03-17T15:12:36;15.20;;;7.82;;
65581;SDS011;52231;40.090;18.348;2024-03-17T15:15:04;12.10;;;6.00;;
65581;SDS011;52231;40.090;18.348;2024-03-17T15:17:34;12.45;;;4.90;;
65581;SDS011;52231;40.090;18.348;2024-03-17T15:20:03;10.63;;;5.20;;